首页
METAR-TAF:

METAR-TAF

机场 :

Fort Stockton-Pecos County Airport

Fort Stockton, 得克萨斯州, 美国

纬度: 30-54-43N, 经度: 102-55-00W, 海拔: 917米

METAR: 丢失

时间: 17:06 (22:06 UTC)

预报

该预报发布于4小时和46分钟前的17:20 UTC
预报有效从17日的 18点(UTC)到 18日的 18点(UTC)
风速5节,风向西南
能見度: 10公里
多云层高于25000英尺

TAF: KFST 171720Z 1718/1818 22005KT P6SM BKN250

超过4000个机场的气象观测和天气预报(METAR&TAF报告)。

可查询的气象台以黄色和红色小点在地图上表示。

将鼠标移到小点上方,可查看气象台名称。

然后点击查看天气观测和预报。

如需切换地图:点击带黑十字的绿色按钮放大地图;点击带横线的绿色按钮缩小地图;或者点击绿色箭头查看邻近地区的地图。


METAR-TAF: